Time;durP1;ratioP1;P1;durP2;ratioP2;P2;SDS_P1;SDS_P2;PMS_P1;PMS_P2;Temp;Humidity;BMP_temperature;BMP_pressure;BME280_temperature;BME280_humidity;BME280_pressure;Samples;Min_cycle;Max_cycle;Signal;HPM_P1;HPM_P2
2023/04/06 00:01:54;;;;;;;4.77;3.50;;;1.50;77.00;;;;;;5113006;28;20225;-80
2023/04/06 00:04:19;;;;;;;3.13;2.80;;;1.50;77.30;;;;;;5113136;28;20203;-80
2023/04/06 00:06:45;;;;;;;3.57;3.10;;;1.40;77.50;;;;;;5112824;28;20186;-80
2023/04/06 00:09:11;;;;;;;4.60;3.50;;;1.40;77.30;;;;;;5112293;28;20170;-80
2023/04/06 00:11:36;;;;;;;5.33;3.53;;;1.40;77.20;;;;;;5112693;28;20642;-79
2023/04/06 00:14:02;;;;;;;3.73;3.43;;;1.40;76.90;;;;;;5112564;28;20226;-79
2023/04/06 00:16:28;;;;;;;3.87;3.20;;;1.40;77.20;;;;;;5112530;28;20213;-78
2023/04/06 00:18:54;;;;;;;3.83;3.30;;;1.40;77.10;;;;;;5112860;28;20175;-78
2023/04/06 00:21:19;;;;;;;3.53;3.23;;;1.30;77.20;;;;;;5112877;28;20634;-79
2023/04/06 00:23:45;;;;;;;3.63;3.20;;;1.40;77.50;;;;;;5112433;28;20186;-77
2023/04/06 00:26:11;;;;;;;4.50;3.60;;;1.20;77.70;;;;;;5112717;28;20273;-77
2023/04/06 00:28:40;;;;;;;6.83;3.40;;;1.30;77.80;;;;;;5112855;28;20183;-79
2023/04/06 00:31:05;;;;;;;3.00;2.80;;;1.30;77.50;;;;;;5112920;28;20258;-80
2023/04/06 00:33:32;;;;;;;5.43;3.10;;;1.30;77.50;;;;;;5112927;28;20256;-80
2023/04/06 00:35:57;;;;;;;3.70;3.40;;;1.30;77.50;;;;;;5112671;28;20181;-80
2023/04/06 00:38:23;;;;;;;3.57;3.20;;;1.40;77.60;;;;;;5113056;28;20747;-79
2023/04/06 00:40:49;;;;;;;3.63;3.33;;;1.40;77.70;;;;;;5094376;28;20192;-79
2023/04/06 00:43:15;;;;;;;4.80;3.23;;;1.40;77.60;;;;;;5112477;28;20251;-80
2023/04/06 00:45:41;;;;;;;3.40;3.13;;;1.40;77.60;;;;;;5112647;28;20268;-79
2023/04/06 00:48:08;;;;;;;3.43;3.13;;;1.50;77.50;;;;;;5112362;28;20172;-79
2023/04/06 00:50:34;;;;;;;4.57;3.53;;;1.50;77.30;;;;;;5112939;28;20169;-80
2023/04/06 00:53:00;;;;;;;4.17;3.50;;;1.60;77.30;;;;;;5112328;28;20168;-79
2023/04/06 00:55:29;;;;;;;3.23;2.93;;;1.60;77.30;;;;;;5112389;28;20177;-79
2023/04/06 00:57:59;;;;;;;3.87;3.33;;;1.50;77.40;;;;;;5112007;28;20640;-80
2023/04/06 01:00:25;;;;;;;3.53;3.13;;;1.50;77.30;;;;;;5112209;28;20179;-80
2023/04/06 01:02:51;;;;;;;5.57;3.40;;;1.40;77.40;;;;;;5111938;28;20635;-79
2023/04/06 01:05:16;;;;;;;4.00;3.40;;;1.40;77.60;;;;;;5112298;28;20183;-78
2023/04/06 01:07:42;;;;;;;3.60;3.30;;;1.40;77.60;;;;;;5111996;28;20173;-79
2023/04/06 01:10:08;;;;;;;3.83;3.37;;;1.40;77.80;;;;;;5112138;28;20170;-79
2023/04/06 01:12:34;;;;;;;5.47;3.90;;;1.30;77.90;;;;;;5114380;28;20209;-79
2023/04/06 01:15:00;;;;;;;3.67;3.30;;;1.40;78.30;;;;;;5111811;28;20225;-79
2023/04/06 01:17:28;;;;;;;3.77;3.47;;;1.30;78.00;;;;;;5112013;28;20212;-79
2023/04/06 01:19:54;;;;;;;3.90;3.50;;;1.30;78.80;;;;;;5112451;28;20197;-79
2023/04/06 01:22:20;;;;;;;5.33;3.23;;;1.30;77.80;;;;;;5115394;28;20180;-79
2023/04/06 01:24:46;;;;;;;3.47;3.00;;;1.30;77.80;;;;;;5116078;28;20182;-78
2023/04/06 01:27:12;;;;;;;3.13;2.83;;;1.20;77.60;;;;;;5116034;28;20246;-80
2023/04/06 01:29:41;;;;;;;3.33;2.93;;;1.40;77.90;;;;;;5097786;28;20237;-80
2023/04/06 01:32:07;;;;;;;3.33;3.07;;;1.30;77.60;;;;;;5116333;28;20178;-79
2023/04/06 01:34:33;;;;;;;4.47;3.37;;;1.30;77.80;;;;;;5115770;28;20168;-80
2023/04/06 01:36:58;;;;;;;3.50;3.20;;;1.30;77.90;;;;;;5115901;28;20215;-79
2023/04/06 01:39:25;;;;;;;3.20;3.00;;;1.20;78.00;;;;;;5116467;28;20181;-79
2023/04/06 01:41:51;;;;;;;4.27;3.40;;;1.20;78.40;;;;;;5116154;28;20184;-80
2023/04/06 01:44:20;;;;;;;3.47;3.17;;;1.30;78.30;;;;;;5115863;28;20235;-80
2023/04/06 01:46:46;;;;;;;3.97;3.50;;;1.20;78.50;;;;;;5115667;28;20181;-78
2023/04/06 01:49:12;;;;;;;3.83;3.53;;;1.20;78.80;;;;;;5097409;28;20633;-80
2023/04/06 01:51:39;;;;;;;3.70;3.40;;;1.20;78.60;;;;;;5115889;28;20203;-78
2023/04/06 01:54:05;;;;;;;7.20;3.70;;;1.10;78.60;;;;;;5115443;28;20208;-82
2023/04/06 01:56:30;;;;;;;3.73;3.30;;;1.00;78.80;;;;;;5115542;28;20721;-79
2023/04/06 01:58:56;;;;;;;3.57;3.27;;;1.00;78.80;;;;;;5115621;28;20293;-79
2023/04/06 02:01:22;;;;;;;5.63;3.23;;;0.90;78.80;;;;;;5115611;28;20183;-80
2023/04/06 02:03:48;;;;;;;4.67;3.60;;;0.80;79.20;;;;;;5115293;28;20180;-80
2023/04/06 02:06:13;;;;;;;4.60;3.50;;;0.80;79.40;;;;;;5115208;28;20169;-80
2023/04/06 02:08:39;;;;;;;4.10;3.70;;;0.70;79.80;;;;;;5115363;28;20650;-79
2023/04/06 02:11:05;;;;;;;3.40;3.10;;;0.70;80.10;;;;;;5115485;28;20163;-79
2023/04/06 02:13:31;;;;;;;3.67;3.30;;;0.60;80.00;;;;;;5115155;28;20224;-78
2023/04/06 02:15:57;;;;;;;3.40;3.20;;;0.70;79.60;;;;;;5114737;28;20208;-78
2023/04/06 02:18:23;;;;;;;3.13;2.87;;;0.70;80.00;;;;;;5115122;28;20183;-79
2023/04/06 02:20:48;;;;;;;3.77;3.43;;;0.70;79.70;;;;;;5115087;28;20186;-78
2023/04/06 02:23:14;;;;;;;3.40;3.00;;;0.70;79.40;;;;;;5114931;28;20175;-79
2023/04/06 02:25:40;;;;;;;3.90;3.50;;;0.70;79.30;;;;;;5114745;28;20194;-79
2023/04/06 02:28:06;;;;;;;3.77;2.93;;;0.80;79.40;;;;;;5115091;28;20210;-78
2023/04/06 02:30:32;;;;;;;5.77;3.30;;;0.70;79.50;;;;;;5114758;28;20176;-78
2023/04/06 02:33:02;;;;;;;4.00;3.37;;;0.80;79.40;;;;;;5113647;28;20180;-78
2023/04/06 02:35:29;;;;;;;4.27;3.57;;;0.80;79.40;;;;;;5114635;28;20199;-79
2023/04/06 02:37:54;;;;;;;3.20;2.90;;;0.80;79.20;;;;;;5096166;28;20209;-78
2023/04/06 02:40:20;;;;;;;5.87;3.47;;;0.80;79.10;;;;;;5115320;28;20178;-79
2023/04/06 02:42:47;;;;;;;3.37;3.17;;;0.80;79.20;;;;;;5115661;28;20673;-79
2023/04/06 02:45:13;;;;;;;3.30;3.00;;;0.80;79.30;;;;;;5114422;28;20207;-80
2023/04/06 02:47:39;;;;;;;3.10;2.90;;;0.90;79.30;;;;;;5114165;28;20171;-79
2023/04/06 02:50:05;;;;;;;3.23;2.83;;;0.70;79.50;;;;;;5114435;28;20171;-78
2023/04/06 02:52:31;;;;;;;2.57;2.37;;;0.80;79.50;;;;;;5116252;28;20204;-80
2023/04/06 02:54:57;;;;;;;3.20;3.00;;;0.90;79.30;;;;;;5114214;28;20175;-80
2023/04/06 02:57:22;;;;;;;6.10;2.77;;;0.80;79.50;;;;;;5113998;28;20705;-80
2023/04/06 02:59:48;;;;;;;3.93;2.93;;;0.80;79.40;;;;;;5114352;28;20173;-78
2023/04/06 03:02:14;;;;;;;3.10;2.90;;;0.80;79.40;;;;;;5114418;28;20178;-79
2023/04/06 03:04:39;;;;;;;3.23;3.03;;;0.90;79.40;;;;;;5114034;28;20247;-80
2023/04/06 03:07:05;;;;;;;5.80;3.53;;;1.00;79.50;;;;;;5114374;28;20194;-80
2023/04/06 03:09:31;;;;;;;3.20;2.90;;;0.80;79.30;;;;;;5114312;28;20162;-78
2023/04/06 03:11:57;;;;;;;3.27;2.97;;;0.80;79.30;;;;;;5114321;28;20638;-78
2023/04/06 03:14:23;;;;;;;3.30;2.50;;;0.80;79.50;;;;;;5113857;28;20217;-79
2023/04/06 03:16:49;;;;;;;4.60;3.07;;;0.70;79.40;;;;;;5113513;28;20560;-80
2023/04/06 03:19:15;;;;;;;3.27;2.93;;;0.70;79.50;;;;;;5113844;28;20168;-80
2023/04/06 03:21:42;;;;;;;3.50;3.20;;;0.60;79.40;;;;;;5113904;28;20175;-80
2023/04/06 03:24:08;;;;;;;3.00;2.80;;;0.60;79.70;;;;;;5113732;28;20222;-79
2023/04/06 03:26:33;;;;;;;4.83;2.83;;;0.60;79.70;;;;;;5113621;28;20180;-79
2023/04/06 03:28:59;;;;;;;3.43;3.13;;;0.50;79.70;;;;;;5114319;28;20250;-79
2023/04/06 03:31:26;;;;;;;2.90;2.70;;;0.40;79.90;;;;;;5113990;28;20537;-80
2023/04/06 03:33:52;;;;;;;8.13;3.13;;;0.30;80.40;;;;;;5113681;28;20175;-79
2023/04/06 03:36:18;;;;;;;3.37;3.07;;;0.30;80.50;;;;;;5113359;28;20208;-79
2023/04/06 03:38:43;;;;;;;3.00;2.67;;;0.30;80.50;;;;;;5113518;28;20694;-79
2023/04/06 03:41:09;;;;;;;3.30;3.00;;;0.30;80.40;;;;;;5113512;28;20184;-80
2023/04/06 03:43:35;;;;;;;5.57;3.03;;;0.40;80.50;;;;;;5113310;28;20573;-79
2023/04/06 03:46:01;;;;;;;3.57;3.17;;;0.30;80.60;;;;;;5112844;28;20204;-79
2023/04/06 03:48:27;;;;;;;4.43;3.73;;;0.30;80.60;;;;;;5113316;28;20647;-79
2023/04/06 03:50:52;;;;;;;5.50;3.13;;;0.40;80.50;;;;;;5113606;28;20215;-78
2023/04/06 03:53:18;;;;;;;2.77;2.57;;;0.40;80.40;;;;;;5113305;28;20248;-79
2023/04/06 03:55:44;;;;;;;4.17;3.30;;;0.40;80.30;;;;;;5112726;28;20195;-80
2023/04/06 03:58:09;;;;;;;3.30;3.00;;;0.40;80.30;;;;;;5113053;28;20218;-79
2023/04/06 04:00:35;;;;;;;3.33;2.97;;;0.40;80.30;;;;;;5113027;28;20227;-80
2023/04/06 04:03:02;;;;;;;3.87;3.47;;;0.30;80.30;;;;;;5113040;28;20180;-79
2023/04/06 04:05:28;;;;;;;3.10;2.90;;;0.30;80.50;;;;;;5112911;28;20199;-79
2023/04/06 04:07:54;;;;;;;3.13;2.93;;;0.20;80.50;;;;;;5112721;28;20181;-77
2023/04/06 04:10:19;;;;;;;4.53;3.00;;;0.20;80.90;;;;;;5112905;28;20178;-79
2023/04/06 04:12:45;;;;;;;5.13;3.70;;;0.30;80.70;;;;;;5112787;28;20218;-78
2023/04/06 04:15:11;;;;;;;3.67;3.37;;;0.30;81.00;;;;;;5112625;28;20232;-78
2023/04/06 04:17:36;;;;;;;5.40;3.03;;;0.30;80.80;;;;;;5112261;28;20210;-80
2023/04/06 04:20:02;;;;;;;4.73;3.50;;;0.30;80.90;;;;;;5112667;28;20599;-79
2023/04/06 04:22:28;;;;;;;4.03;3.00;;;0.40;80.80;;;;;;5112676;28;20187;-78
2023/04/06 04:24:54;;;;;;;3.57;3.20;;;0.50;80.80;;;;;;5112657;28;20621;-79
2023/04/06 04:27:20;;;;;;;3.63;3.33;;;0.40;80.60;;;;;;5112127;28;20251;-80
2023/04/06 04:29:46;;;;;;;4.20;3.80;;;0.30;80.90;;;;;;5112474;28;20224;-77
2023/04/06 04:32:12;;;;;;;3.70;3.40;;;0.40;81.10;;;;;;5114156;28;20179;-78
2023/04/06 04:34:40;;;;;;;3.67;3.37;;;0.30;81.10;;;;;;5112554;28;20177;-80
2023/04/06 04:37:06;;;;;;;4.00;3.70;;;0.40;81.40;;;;;;5112043;28;20210;-78
2023/04/06 04:39:32;;;;;;;4.10;3.70;;;0.40;81.20;;;;;;5112573;28;20173;-79
2023/04/06 04:41:58;;;;;;;6.40;3.80;;;0.40;81.00;;;;;;5112754;28;20177;-79
2023/04/06 04:44:24;;;;;;;3.67;3.37;;;0.40;81.10;;;;;;5112469;28;20164;-80
2023/04/06 04:46:50;;;;;;;3.93;3.47;;;0.30;81.20;;;;;;5112165;28;20618;-78
2023/04/06 04:49:15;;;;;;;4.27;3.87;;;0.30;81.30;;;;;;5112611;28;20171;-79
2023/04/06 04:51:41;;;;;;;4.67;3.33;;;0.30;81.30;;;;;;5112512;28;20174;-79
2023/04/06 04:54:07;;;;;;;6.70;3.30;;;0.30;81.20;;;;;;5112593;28;20188;-79
2023/04/06 04:56:32;;;;;;;3.60;3.27;;;0.30;81.20;;;;;;5114023;28;20624;-78
2023/04/06 04:58:58;;;;;;;3.50;3.30;;;0.10;81.40;;;;;;5116637;28;20183;-81
2023/04/06 05:01:24;;;;;;;3.33;2.80;;;0.20;81.50;;;;;;5116561;28;20179;-79
2023/04/06 05:03:50;;;;;;;3.40;3.10;;;0.20;81.40;;;;;;5116654;28;20171;-81
2023/04/06 05:06:16;;;;;;;3.63;3.17;;;0.30;81.00;;;;;;5116447;28;20176;-80
2023/04/06 05:08:42;;;;;;;3.60;3.30;;;0.40;81.00;;;;;;5116304;28;20181;-79
2023/04/06 05:11:09;;;;;;;3.50;3.20;;;0.50;81.00;;;;;;5098156;28;20556;-79
2023/04/06 05:13:35;;;;;;;5.23;3.40;;;0.60;80.90;;;;;;5116513;28;20219;-80
2023/04/06 05:16:00;;;;;;;3.77;3.47;;;0.50;81.00;;;;;;5116859;28;20601;-78
2023/04/06 05:18:26;;;;;;;4.23;3.83;;;0.60;81.30;;;;;;5116302;28;20188;-78
2023/04/06 05:20:52;;;;;;;3.70;3.10;;;0.50;81.10;;;;;;5116304;28;20167;-78
2023/04/06 05:23:18;;;;;;;4.27;3.60;;;0.60;80.90;;;;;;5116205;28;20638;-79
2023/04/06 05:25:43;;;;;;;5.13;3.37;;;0.60;80.90;;;;;;5116010;28;20614;-78
2023/04/06 05:28:09;;;;;;;4.43;3.13;;;0.60;80.70;;;;;;5115958;28;20667;-79
2023/04/06 05:30:37;;;;;;;4.83;3.47;;;0.60;80.70;;;;;;5116115;28;20641;-79
2023/04/06 05:33:03;;;;;;;3.13;2.93;;;0.70;80.80;;;;;;5116199;28;20180;-78
2023/04/06 05:35:29;;;;;;;3.93;3.07;;;0.70;80.50;;;;;;5116043;28;20669;-79
2023/04/06 05:37:55;;;;;;;5.97;3.37;;;0.80;80.70;;;;;;5112641;27;20705;-78
2023/04/06 05:40:20;;;;;;;4.50;3.10;;;0.80;80.20;;;;;;5115995;28;20173;-79
2023/04/06 05:42:46;;;;;;;5.17;3.23;;;0.90;80.10;;;;;;5116052;28;20183;-79
2023/04/06 05:45:16;;;;;;;4.97;3.50;;;1.00;80.00;;;;;;5115885;28;20198;-78
2023/04/06 05:47:43;;;;;;;6.37;4.67;;;1.20;80.10;;;;;;5114400;28;20271;-78
2023/04/06 05:50:10;;;;;;;5.67;3.90;;;1.20;79.40;;;;;;5115465;28;20221;-80
2023/04/06 05:52:36;;;;;;;3.33;3.13;;;1.30;79.40;;;;;;5115661;28;20177;-78
2023/04/06 05:55:03;;;;;;;4.83;3.40;;;1.40;79.00;;;;;;5097308;28;20188;-79
2023/04/06 05:57:29;;;;;;;3.83;3.50;;;1.40;78.90;;;;;;5114940;28;20683;-80
2023/04/06 05:59:55;;;;;;;6.20;3.00;;;1.30;79.10;;;;;;5115417;28;20250;-78
2023/04/06 06:02:21;;;;;;;6.00;3.33;;;1.40;78.90;;;;;;5115350;28;20176;-78
2023/04/06 06:04:47;;;;;;;4.07;3.77;;;1.50;78.80;;;;;;5115441;28;20536;-80
2023/04/06 06:07:14;;;;;;;4.10;3.00;;;1.50;78.80;;;;;;5114961;28;20180;-79
2023/04/06 06:09:39;;;;;;;6.60;3.97;;;1.70;78.70;;;;;;5115195;28;20557;-77
2023/04/06 06:12:05;;;;;;;3.77;3.17;;;1.70;78.70;;;;;;5115351;28;20173;-79
2023/04/06 06:14:31;;;;;;;3.47;3.17;;;1.80;78.70;;;;;;5098265;28;20243;-78
2023/04/06 06:16:57;;;;;;;3.90;3.57;;;2.00;78.60;;;;;;5115011;28;20209;-79
2023/04/06 06:19:22;;;;;;;3.37;3.07;;;2.10;77.90;;;;;;5114886;28;20164;-78
2023/04/06 06:21:48;;;;;;;4.27;2.90;;;2.20;77.30;;;;;;5113251;28;20180;-78
2023/04/06 06:24:14;;;;;;;4.47;3.10;;;2.30;77.30;;;;;;5115031;28;20597;-79
2023/04/06 06:26:40;;;;;;;3.60;3.10;;;2.30;76.60;;;;;;5114837;28;20181;-79
2023/04/06 06:29:07;;;;;;;3.67;3.30;;;2.50;76.10;;;;;;5114954;28;20169;-79
2023/04/06 06:31:32;;;;;;;6.97;3.10;;;2.60;76.10;;;;;;5096887;28;20204;-79
2023/04/06 06:33:58;;;;;;;4.93;3.33;;;2.80;75.70;;;;;;5115169;28;20291;-79
2023/04/06 06:36:25;;;;;;;3.67;3.00;;;2.80;75.30;;;;;;5114868;28;20198;-79
2023/04/06 06:38:51;;;;;;;4.20;3.50;;;2.90;75.60;;;;;;5114618;28;20168;-80
2023/04/06 06:41:17;;;;;;;3.60;3.20;;;2.90;75.40;;;;;;5114806;28;20178;-80
2023/04/06 06:43:43;;;;;;;3.90;3.50;;;3.00;75.20;;;;;;5115595;28;20173;-79
2023/04/06 06:46:08;;;;;;;6.17;3.87;;;3.10;74.60;;;;;;5114082;28;20301;-80
2023/04/06 06:48:34;;;;;;;3.53;3.17;;;3.10;74.40;;;;;;5096000;28;20241;-79
2023/04/06 06:51:00;;;;;;;6.47;3.83;;;3.10;74.10;;;;;;5114574;28;20209;-81
2023/04/06 06:53:26;;;;;;;3.90;3.50;;;3.10;74.70;;;;;;5114515;28;20252;-80
2023/04/06 06:55:52;;;;;;;3.47;3.17;;;3.20;74.80;;;;;;5114732;28;20172;-79
2023/04/06 06:58:19;;;;;;;4.10;3.40;;;3.30;75.00;;;;;;5096256;28;20214;-79
2023/04/06 07:00:46;;;;;;;3.60;3.30;;;3.50;74.50;;;;;;5096094;28;20648;-79
2023/04/06 07:03:12;;;;;;;4.10;3.70;;;3.50;74.70;;;;;;5114888;28;20177;-80
2023/04/06 07:05:38;;;;;;;4.90;3.60;;;3.60;74.60;;;;;;5115185;28;20170;-80
2023/04/06 07:08:04;;;;;;;6.73;3.20;;;3.80;73.80;;;;;;5096193;28;20170;-80
2023/04/06 07:10:30;;;;;;;4.30;3.37;;;3.80;73.70;;;;;;5095941;28;20179;-80
2023/04/06 07:12:56;;;;;;;3.87;3.50;;;3.90;73.50;;;;;;5114802;28;20249;-79
2023/04/06 07:15:21;;;;;;;7.37;4.70;;;3.90;73.70;;;;;;5114623;28;20279;-78
2023/04/06 07:17:47;;;;;;;6.17;4.60;;;4.00;74.40;;;;;;5114301;28;20210;-79
2023/04/06 07:20:14;;;;;;;8.00;4.60;;;4.00;74.80;;;;;;5114039;28;20632;-78
2023/04/06 07:22:42;;;;;;;7.97;4.47;;;4.20;75.30;;;;;;5114091;28;20637;-78
2023/04/06 07:25:08;;;;;;;6.97;4.23;;;4.30;75.40;;;;;;5114171;28;20221;-79
2023/04/06 07:27:34;;;;;;;8.73;4.33;;;4.30;75.40;;;;;;5114112;28;20181;-79
2023/04/06 07:30:00;;;;;;;5.17;4.77;;;4.40;75.40;;;;;;5113766;28;20197;-79
2023/04/06 07:32:26;;;;;;;4.80;4.27;;;4.50;74.90;;;;;;5113996;28;20206;-80
2023/04/06 07:34:51;;;;;;;7.13;4.13;;;4.50;75.30;;;;;;5095782;28;20175;-79
2023/04/06 07:37:17;;;;;;;5.90;4.30;;;4.60;74.90;;;;;;5113892;28;20590;-80
2023/04/06 07:39:43;;;;;;;10.03;4.07;;;4.70;74.20;;;;;;5114062;28;20179;-80
2023/04/06 07:42:09;;;;;;;4.60;4.20;;;4.80;74.20;;;;;;5114077;28;20166;-78
2023/04/06 07:44:34;;;;;;;7.13;4.30;;;4.90;73.10;;;;;;5114018;28;20630;-79
2023/04/06 07:47:00;;;;;;;4.97;4.10;;;4.90;72.70;;;;;;5113845;28;20624;-79
2023/04/06 07:49:26;;;;;;;4.13;3.57;;;5.00;72.90;;;;;;5113745;28;20637;-77
2023/04/06 07:51:52;;;;;;;6.03;3.77;;;5.00;72.50;;;;;;5114014;28;20175;-78
2023/04/06 07:54:18;;;;;;;3.87;3.37;;;5.20;71.60;;;;;;5113960;28;20178;-80
2023/04/06 07:56:43;;;;;;;10.63;4.03;;;5.40;71.50;;;;;;5113339;28;20667;-79
2023/04/06 07:59:11;;;;;;;6.20;4.40;;;5.40;70.50;;;;;;5113351;28;20180;-79
2023/04/06 08:01:37;;;;;;;4.13;3.73;;;5.50;70.00;;;;;;5113664;28;20185;-78
2023/04/06 08:04:03;;;;;;;6.00;4.10;;;5.50;70.30;;;;;;5095435;28;20178;-80
2023/04/06 08:06:28;;;;;;;8.50;4.50;;;5.60;70.20;;;;;;5113193;28;20574;-79
2023/04/06 08:08:54;;;;;;;5.60;3.77;;;5.70;70.10;;;;;;5113140;28;20616;-81
2023/04/06 08:11:20;;;;;;;4.47;4.10;;;5.90;69.00;;;;;;5113256;28;20181;-78
2023/04/06 08:13:46;;;;;;;5.60;3.87;;;5.90;69.30;;;;;;5113055;28;20279;-78
2023/04/06 08:16:12;;;;;;;4.77;3.77;;;5.90;69.30;;;;;;5112842;28;20178;-80
2023/04/06 08:18:37;;;;;;;7.97;4.20;;;5.80;69.40;;;;;;5113120;28;20209;-78
2023/04/06 08:21:06;;;;;;;5.47;4.47;;;5.90;70.00;;;;;;5112852;28;20716;-78
2023/04/06 08:23:32;;;;;;;6.43;4.53;;;6.00;69.70;;;;;;5112942;28;20177;-77
2023/04/06 08:25:57;;;;;;;4.37;3.97;;;6.10;69.20;;;;;;5113297;28;20272;-78
2023/04/06 08:28:23;;;;;;;3.50;3.20;;;6.20;69.30;;;;;;5112955;28;20257;-78
2023/04/06 08:30:49;;;;;;;4.30;3.90;;;6.20;68.40;;;;;;5111792;28;20249;-78
2023/04/06 08:33:15;;;;;;;6.27;3.87;;;6.40;67.20;;;;;;5094917;28;20179;-78
2023/04/06 08:35:41;;;;;;;3.50;3.20;;;6.50;67.20;;;;;;5112862;28;20173;-79
2023/04/06 08:38:07;;;;;;;4.00;3.20;;;6.60;63.30;;;;;;5112742;28;20212;-80
2023/04/06 08:40:37;;;;;;;3.17;2.97;;;6.70;62.80;;;;;;5112642;28;20215;-78
2023/04/06 08:43:08;;;;;;;2.63;2.53;;;6.80;62.30;;;;;;5112726;28;20227;-80
2023/04/06 08:45:34;;;;;;;2.90;2.70;;;6.80;62.30;;;;;;5112674;28;20176;-78
2023/04/06 08:48:02;;;;;;;4.73;2.67;;;6.90;62.00;;;;;;5113061;28;20176;-79
2023/04/06 08:50:32;;;;;;;4.57;2.90;;;7.00;61.70;;;;;;5112665;28;20173;-79
2023/04/06 08:52:59;;;;;;;3.93;3.00;;;7.10;61.60;;;;;;5113861;28;20273;-80
2023/04/06 08:55:25;;;;;;;2.77;2.57;;;7.10;61.60;;;;;;5113850;28;20209;-80
2023/04/06 08:57:54;;;;;;;4.03;3.00;;;7.10;62.30;;;;;;5112493;28;20278;-77
2023/04/06 09:00:21;;;;;;;3.17;2.87;;;7.20;62.50;;;;;;5113469;28;20185;-78
2023/04/06 09:02:50;;;;;;;2.90;2.70;;;7.20;59.70;;;;;;5095207;28;20186;-78
2023/04/06 09:05:17;;;;;;;2.77;2.57;;;7.30;60.30;;;;;;5113192;28;20169;-79
2023/04/06 09:07:42;;;;;;;2.80;2.67;;;7.40;59.60;;;;;;5113569;28;20178;-79
2023/04/06 09:10:09;;;;;;;2.70;2.50;;;7.40;59.00;;;;;;5112734;28;20181;-80
2023/04/06 09:12:34;;;;;;;2.60;2.40;;;7.40;58.90;;;;;;5112245;28;20224;-78
2023/04/06 09:15:01;;;;;;;2.57;2.40;;;7.50;58.30;;;;;;5112042;28;20221;-79
2023/04/06 09:17:33;;;;;;;3.50;2.40;;;7.50;57.90;;;;;;5112206;28;20208;-79
2023/04/06 09:20:03;;;;;;;2.90;2.20;;;7.50;58.20;;;;;;5112478;28;20541;-81
2023/04/06 09:22:39;;;;;;;2.73;2.53;;;7.60;58.10;;;;;;5112092;28;20522;-80
2023/04/06 09:25:06;;;;;;;5.67;2.90;;;7.70;58.30;;;;;;5112313;28;20204;-80
2023/04/06 09:27:34;;;;;;;2.27;2.03;;;7.90;57.80;;;;;;5111980;28;20162;-80
2023/04/06 09:30:13;;;;;;;2.07;1.97;;;7.90;58.00;;;;;;5112267;28;20618;-79
2023/04/06 09:32:50;;;;;;;2.43;2.20;;;8.00;58.30;;;;;;5112095;28;20255;-80
2023/04/06 09:35:19;;;;;;;2.27;2.17;;;8.00;57.40;;;;;;5094145;28;20179;-79
2023/04/06 09:37:50;;;;;;;3.60;2.70;;;8.00;58.20;;;;;;5093804;28;20214;-79
2023/04/06 09:40:17;;;;;;;2.43;2.33;;;8.10;57.70;;;;;;5112555;28;20166;-79
2023/04/06 09:42:46;;;;;;;2.40;2.30;;;8.10;57.50;;;;;;5113849;28;20532;-78
2023/04/06 09:45:13;;;;;;;2.30;2.10;;;8.20;57.80;;;;;;5098018;28;20535;-80
2023/04/06 09:47:42;;;;;;;2.53;1.80;;;8.30;56.90;;;;;;5116392;28;20177;-79
2023/04/06 09:50:10;;;;;;;2.40;2.20;;;8.50;57.00;;;;;;5116283;28;20211;-78
2023/04/06 09:52:39;;;;;;;2.53;2.30;;;8.50;56.80;;;;;;5115933;28;20588;-79
2023/04/06 09:55:05;;;;;;;2.70;2.50;;;8.40;56.80;;;;;;5097776;28;20216;-79
2023/04/06 09:58:03;;;;;;;2.40;2.20;;;8.50;56.90;;;;;;5097227;28;20216;-79
2023/04/06 10:00:31;;;;;;;2.03;1.87;;;8.60;56.60;;;;;;5108407;28;20654;-79
2023/04/06 10:03:22;;;;;;;2.30;2.20;;;8.60;56.80;;;;;;5115226;28;20176;-79
2023/04/06 10:06:00;;;;;;;2.57;2.37;;;8.60;56.00;;;;;;5097226;28;20632;-81
2023/04/06 10:08:28;;;;;;;2.20;2.10;;;8.70;56.10;;;;;;5115513;28;20189;-78
2023/04/06 10:10:57;;;;;;;3.07;2.37;;;8.60;55.50;;;;;;5096843;28;20177;-79
2023/04/06 10:13:24;;;;;;;2.50;2.40;;;8.80;55.70;;;;;;5114763;28;20177;-80
2023/04/06 10:15:51;;;;;;;2.40;2.30;;;8.70;55.50;;;;;;5116479;28;20563;-79
2023/04/06 10:18:20;;;;;;;2.10;2.00;;;8.70;56.40;;;;;;5116954;28;20217;-79
2023/04/06 10:21:03;;;;;;;2.20;2.10;;;8.90;55.80;;;;;;5097169;28;20177;-79
2023/04/06 10:23:37;;;;;;;2.83;2.60;;;8.90;55.30;;;;;;5115002;28;20204;-81
2023/04/06 10:26:03;;;;;;;2.23;2.07;;;9.00;55.20;;;;;;5115178;28;20157;-78
2023/04/06 10:28:35;;;;;;;2.20;2.10;;;9.00;55.30;;;;;;5115187;28;20566;-78
2023/04/06 10:31:05;;;;;;;2.40;2.20;;;9.10;54.80;;;;;;5115203;28;20181;-80
2023/04/06 10:33:31;;;;;;;2.33;2.13;;;9.20;54.50;;;;;;5114814;28;20196;-78
2023/04/06 10:35:57;;;;;;;2.10;2.00;;;9.20;54.10;;;;;;5114720;28;20180;-80
2023/04/06 10:38:37;;;;;;;2.67;2.40;;;9.20;54.20;;;;;;5096624;28;20200;-79
2023/04/06 10:41:10;;;;;;;2.00;1.90;;;9.20;54.10;;;;;;5114909;28;20218;-78
2023/04/06 10:43:38;;;;;;;1.90;1.80;;;9.20;54.20;;;;;;5114880;28;20715;-79
2023/04/06 10:46:05;;;;;;;1.90;1.80;;;9.20;54.70;;;;;;5096495;28;20170;-80
2023/04/06 10:48:40;;;;;;;2.30;2.17;;;9.40;55.00;;;;;;5114779;28;20176;-78
2023/04/06 10:51:14;;;;;;;2.03;1.93;;;9.50;53.70;;;;;;5114775;28;20864;-80
2023/04/06 10:53:48;;;;;;;3.40;2.20;;;9.60;53.60;;;;;;5113560;28;20166;-79
2023/04/06 10:56:16;;;;;;;2.00;1.90;;;9.70;53.90;;;;;;5114399;28;20666;-78
2023/04/06 10:58:49;;;;;;;2.13;2.03;;;9.80;54.10;;;;;;5114456;28;20170;-79
2023/04/06 11:01:20;;;;;;;3.13;2.00;;;9.80;53.40;;;;;;5114495;28;20271;-78
2023/04/06 11:03:51;;;;;;;2.10;2.00;;;9.90;52.80;;;;;;5114344;28;20215;-79
2023/04/06 11:06:29;;;;;;;1.83;1.73;;;9.80;52.70;;;;;;5096414;28;20303;-79
2023/04/06 11:08:56;;;;;;;2.10;2.00;;;9.80;52.60;;;;;;5114347;28;20513;-79
2023/04/06 11:11:26;;;;;;;2.33;1.77;;;9.90;52.70;;;;;;5114200;28;20206;-80
2023/04/06 11:13:54;;;;;;;2.07;1.97;;;10.00;51.50;;;;;;5113807;28;20231;-79
2023/04/06 11:16:25;;;;;;;1.93;1.83;;;10.00;51.50;;;;;;5114254;28;20271;-78
2023/04/06 11:18:50;;;;;;;1.90;1.80;;;10.00;50.60;;;;;;5096078;28;20211;-78
2023/04/06 11:21:16;;;;;;;1.90;1.70;;;9.90;51.40;;;;;;5114071;28;20170;-80
2023/04/06 11:23:43;;;;;;;1.63;1.63;;;10.00;50.50;;;;;;5113840;28;20183;-80
2023/04/06 11:26:14;;;;;;;1.60;1.60;;;10.10;50.50;;;;;;5113916;28;20707;-79
2023/04/06 11:28:42;;;;;;;1.90;1.83;;;10.10;51.40;;;;;;5114065;28;20177;-79
2023/04/06 11:31:10;;;;;;;1.50;1.50;;;10.10;50.90;;;;;;5113967;28;20291;-79
2023/04/06 11:33:39;;;;;;;1.60;1.50;;;10.00;50.90;;;;;;5113883;28;20222;-79
2023/04/06 11:36:06;;;;;;;1.57;1.47;;;10.10;51.10;;;;;;5113564;28;20173;-79
2023/04/06 11:38:32;;;;;;;2.50;1.70;;;10.20;49.60;;;;;;5113699;28;20186;-78
2023/04/06 11:40:58;;;;;;;1.57;1.47;;;10.10;50.40;;;;;;5113790;28;20174;-78
2023/04/06 11:43:29;;;;;;;2.67;1.47;;;10.20;51.00;;;;;;5113423;28;20174;-78
2023/04/06 11:46:02;;;;;;;1.40;1.40;;;10.40;50.70;;;;;;5113993;28;20503;-80
2023/04/06 11:48:28;;;;;;;1.50;1.50;;;10.50;49.70;;;;;;5113843;28;20178;-80
2023/04/06 11:51:00;;;;;;;1.57;1.47;;;10.50;49.10;;;;;;5113868;28;20178;-78
2023/04/06 11:53:27;;;;;;;1.50;1.50;;;10.50;49.00;;;;;;5113226;28;20685;-79
2023/04/06 11:55:53;;;;;;;1.20;1.20;;;10.50;48.80;;;;;;5094934;28;20177;-79
2023/04/06 11:58:19;;;;;;;1.60;1.50;;;10.50;48.60;;;;;;5113261;28;20547;-78
2023/04/06 12:00:45;;;;;;;1.50;1.37;;;10.50;48.40;;;;;;5113165;28;20170;-79
2023/04/06 12:03:14;;;;;;;1.43;1.30;;;10.50;48.70;;;;;;5113271;28;20221;-78
2023/04/06 12:05:40;;;;;;;1.63;1.37;;;10.50;48.40;;;;;;5112996;28;20248;-80
2023/04/06 12:08:06;;;;;;;1.70;1.60;;;10.60;48.50;;;;;;5113122;28;20257;-78
2023/04/06 12:10:32;;;;;;;1.30;1.27;;;10.70;47.90;;;;;;5113229;28;20208;-78
2023/04/06 12:12:57;;;;;;;2.03;1.40;;;10.70;48.50;;;;;;5113247;28;20257;-79
2023/04/06 12:15:23;;;;;;;1.53;1.53;;;10.70;48.00;;;;;;5112733;28;20736;-78
2023/04/06 12:17:52;;;;;;;1.23;1.23;;;10.80;47.90;;;;;;5112666;28;20222;-78
2023/04/06 12:20:17;;;;;;;1.47;1.37;;;10.80;48.20;;;;;;5113070;28;20161;-80
2023/04/06 12:22:43;;;;;;;1.53;1.43;;;10.90;47.80;;;;;;5113015;28;20174;-78
2023/04/06 12:25:09;;;;;;;1.83;1.70;;;10.90;48.00;;;;;;5112861;28;20186;-79
2023/04/06 12:27:35;;;;;;;1.60;1.50;;;10.90;48.50;;;;;;5112989;28;20180;-80
2023/04/06 12:30:01;;;;;;;1.43;1.33;;;10.90;48.10;;;;;;5094780;28;20556;-79
2023/04/06 12:32:27;;;;;;;1.47;1.47;;;10.90;47.50;;;;;;5113428;28;20211;-78
2023/04/06 12:34:53;;;;;;;1.20;1.20;;;10.90;47.20;;;;;;5112974;28;20170;-77
2023/04/06 12:37:20;;;;;;;1.60;1.50;;;10.90;47.20;;;;;;5112801;28;20211;-78
2023/04/06 12:39:45;;;;;;;1.53;1.50;;;11.00;47.50;;;;;;5113131;28;20163;-77
2023/04/06 12:42:12;;;;;;;1.43;1.40;;;10.90;46.80;;;;;;5112806;28;20193;-78
2023/04/06 12:44:38;;;;;;;1.73;1.43;;;11.00;47.40;;;;;;5112602;28;20220;-76
2023/04/06 12:47:04;;;;;;;1.23;1.23;;;11.10;47.30;;;;;;5094022;28;20176;-78
2023/04/06 12:49:31;;;;;;;1.50;1.40;;;11.10;47.30;;;;;;5094236;28;20176;-79
2023/04/06 12:51:57;;;;;;;1.40;1.40;;;11.10;47.20;;;;;;5094225;28;20185;-78
2023/04/06 12:54:23;;;;;;;1.43;1.33;;;11.20;47.90;;;;;;5094024;28;20526;-78